Ventura, CA (93004)

11:25 AM PDT on April 24, 2017 (GMT -0700)
East Ventura/Saticoy | | Change Station

Elev 213 ft 34.28 °N, 119.16 °W | Updated 5 seconds ago

Partly Cloudy
Partly Cloudy
66.6 °F
Feels Like 66.6 °F
N
0.0
Wind Variable Wind from SE
Gusts 0.0 mph

Today
High -- | Low -- °F
--% Chance of Precip.
Yesterday
High -- | Low -- °F
Precip. -- in
Pressure 29.95 in
Visibility 10.0 miles
Clouds Clear
Dew Point 51 °F
Humidity 57%
Rainfall 0.00 in
Snow Depth Not available.
6:14 AM 7:35 PM
Waning Crescent, 4% visible
METAR KOXR 241751Z VRB04KT 10SM CLR 16/10 A2995 RMK AO2 SLP142 T01610100 10161 20117 51011
Pressure 29.95 in
Visibility 10.0 miles
Clouds Clear
Dew Point 51 °F
Humidity 57%
Rainfall 0.00 in
Snow Depth Not available.
6:14 AM 7:35 PM
Waning Crescent, 4% visible
METAR KOXR 241751Z VRB04KT 10SM CLR 16/10 A2995 RMK AO2 SLP142 T01610100 10161 20117 51011

Get Your Daily Forecast Email!

Thanks for signing up!

Be on the lookout for a verification email in your inbox.

You'll start receiving severe weather alerts in your inbox..

×

10-Day Weather Forecast

Almanac

Astronomy

Apr. 24, 2017 Rise Set
Actual Time
Civil Twilight
Nautical Twilight
Astronomical Twilight
Moon
Length of Visible Light
Length of Day
Tomorrow will be .
, % of the Moon is Illuminated

Today's Extremes

State Highs State Lows

Community

WunderPhotos

WunderBlog® & News

Nearby

Air Quality

  Air Quality AQ Index Pollutant
Not available.

Snow Depth

Station Depth Elevation

Earthquake Activity

City Distance Mag. Time & Date
Minimum magnitude displayed is 2.5.

Coastal Water Temperatures

Place Temperature

Stations

Nearby Weather Stations

Station Location Temp. Windchill Dew Point Humidity Wind Precip. Elev Updated Type
                   

Watches & Warnings

High Surf Advisory
Issued: 8:12 AM PDT Apr. 24, 2017 – National Weather Service

... High surf advisory remains in effect until 10 PM PDT this
evening...

* surf... building to 5 to 8 ft this morning and will persist
through late this evening. Surf will slowly diminish by late
this evening through Tuesday morning

* impacts... there is an increased risk of ocean drowning. Rip
currents can pull swimmers and surfers out to sea. Waves can
wash people off beaches and rocks... and capsize small boats
nearshore.

* Locations... highest surf will be on west facing beaches.

Precautionary/preparedness actions...

A high surf advisory means that high surf will affect beaches in
the advisory area... producing localized beach erosion and
dangerous swimming conditions. Swim near a lifeguard. If caught
in a rip current, relax and float. Don't swim against the
current. If able, swim in a direction following the shoreline. If
unable to escape, face the shore and call or wave for help.